National Weather Service Raw Text Product

Displaying AFOS PIL: TAFALO Received: 2018-01-03 16:19 UTC


425 
FTUS43 KDMX 031619 AAA
TAFALO
TAF AMD
KALO 031619Z 0316/0412 32013KT P6SM SKC
     FM031700 32014G22KT P6SM SKC
     FM040200 33006KT P6SM FEW240=